Time;durP1;ratioP1;P1;durP2;ratioP2;P2;SDS_P1;SDS_P2;PMS_P1;PMS_P2;Temp;Humidity;BMP_temperature;BMP_pressure;BME280_temperature;BME280_humidity;BME280_pressure;Samples;Min_cycle;Max_cycle;Signal;HPM_P1;HPM_P2
2021/09/20 00:00:45;;;;;;;8.55;4.28;;;15.70;93.20;;;;;;5043826;28;20144;-60
2021/09/20 00:03:12;;;;;;;6.00;3.90;;;15.60;93.10;;;;;;5024228;28;20041;-59
2021/09/20 00:05:39;;;;;;;8.00;4.82;;;15.60;93.30;;;;;;5032869;28;20049;-60
2021/09/20 00:08:06;;;;;;;6.32;3.88;;;15.50;92.90;;;;;;5040096;28;20049;-59
2021/09/20 00:10:32;;;;;;;4.53;3.67;;;15.50;93.20;;;;;;5037997;28;20110;-60
2021/09/20 00:12:59;;;;;;;5.95;3.92;;;15.50;93.10;;;;;;5063875;28;20131;-60
2021/09/20 00:15:26;;;;;;;7.50;3.90;;;15.50;93.00;;;;;;5050500;28;20416;-59
2021/09/20 00:17:53;;;;;;;5.63;4.38;;;15.50;92.60;;;;;;5027360;28;20132;-59
2021/09/20 00:20:19;;;;;;;7.40;4.38;;;15.50;92.90;;;;;;5043863;28;20179;-59
2021/09/20 00:22:46;;;;;;;9.13;4.70;;;15.40;92.70;;;;;;5044000;28;20080;-60
2021/09/20 00:25:13;;;;;;;5.20;4.05;;;15.50;92.90;;;;;;5043271;28;20053;-59
2021/09/20 00:27:40;;;;;;;5.03;3.90;;;15.40;92.80;;;;;;5043584;28;20084;-60
2021/09/20 00:30:07;;;;;;;10.18;4.50;;;15.40;92.60;;;;;;5043172;28;20063;-59
2021/09/20 00:32:34;;;;;;;8.85;4.13;;;15.40;92.70;;;;;;5025275;28;20052;-60
2021/09/20 00:35:01;;;;;;;8.57;4.45;;;15.40;92.50;;;;;;5043723;28;20052;-59
2021/09/20 00:37:27;;;;;;;7.10;4.13;;;15.30;92.80;;;;;;5043672;28;20052;-59
2021/09/20 00:39:54;;;;;;;6.18;3.97;;;15.30;92.70;;;;;;5041379;28;20073;-59
2021/09/20 00:42:21;;;;;;;10.25;4.57;;;15.30;92.40;;;;;;5044369;28;20649;-59
2021/09/20 00:44:47;;;;;;;4.95;3.95;;;15.30;92.70;;;;;;5043417;28;20092;-59
2021/09/20 00:47:14;;;;;;;6.25;4.28;;;15.20;92.50;;;;;;5042108;28;20385;-60
2021/09/20 00:49:42;;;;;;;5.20;4.20;;;15.20;92.50;;;;;;5043323;28;20160;-59
2021/09/20 00:52:09;;;;;;;3.97;3.47;;;15.20;92.70;;;;;;5043195;28;20133;-60
2021/09/20 00:54:36;;;;;;;5.38;4.13;;;15.10;92.40;;;;;;5025824;28;20192;-60
2021/09/20 00:57:03;;;;;;;4.57;3.75;;;15.10;92.40;;;;;;5043232;28;20103;-59
2021/09/20 00:59:30;;;;;;;7.00;4.75;;;15.10;92.20;;;;;;5024402;28;20159;-60
2021/09/20 01:01:56;;;;;;;6.63;4.97;;;15.10;92.50;;;;;;5040608;28;20141;-60
2021/09/20 01:04:23;;;;;;;4.65;4.10;;;15.20;92.20;;;;;;5036489;28;20045;-59
2021/09/20 01:06:50;;;;;;;4.75;3.97;;;15.10;91.90;;;;;;5042812;28;20495;-59
2021/09/20 01:09:17;;;;;;;4.85;3.95;;;15.10;92.10;;;;;;5041859;28;20450;-59
2021/09/20 01:11:44;;;;;;;15.13;4.53;;;15.20;92.20;;;;;;5021747;28;20049;-59
2021/09/20 01:14:11;;;;;;;6.35;4.07;;;15.10;92.10;;;;;;5011985;28;20040;-59
2021/09/20 01:16:37;;;;;;;4.53;3.33;;;15.10;92.00;;;;;;5043389;28;20048;-60
2021/09/20 01:19:04;;;;;;;5.38;3.47;;;15.10;91.90;;;;;;5043104;28;20052;-59
2021/09/20 01:21:31;;;;;;;5.68;3.72;;;15.10;91.90;;;;;;5044857;28;20139;-60
2021/09/20 01:23:58;;;;;;;4.18;3.03;;;15.10;91.90;;;;;;5052085;28;20069;-60
2021/09/20 01:26:24;;;;;;;5.90;3.25;;;15.10;91.90;;;;;;5042340;28;20164;-60
2021/09/20 01:28:51;;;;;;;4.95;3.20;;;15.00;91.70;;;;;;5041134;28;20080;-60
2021/09/20 01:31:18;;;;;;;4.20;2.50;;;15.00;91.40;;;;;;5043757;28;20139;-59
2021/09/20 01:33:45;;;;;;;4.75;2.80;;;15.00;91.60;;;;;;5043146;28;20044;-59
2021/09/20 01:36:12;;;;;;;4.07;2.55;;;15.00;91.70;;;;;;5044766;28;20076;-59
2021/09/20 01:38:38;;;;;;;4.40;2.47;;;15.00;91.40;;;;;;5043984;28;20705;-60
2021/09/20 01:41:06;;;;;;;4.28;2.72;;;15.00;92.00;;;;;;5044803;28;20124;-60
2021/09/20 01:43:33;;;;;;;5.68;2.78;;;15.00;91.60;;;;;;5044114;28;20106;-60
2021/09/20 01:45:59;;;;;;;5.57;2.85;;;15.00;91.40;;;;;;5045191;28;20460;-60
2021/09/20 01:48:26;;;;;;;6.43;3.22;;;15.00;91.80;;;;;;5043296;28;20044;-59
2021/09/20 01:50:53;;;;;;;4.68;2.60;;;15.00;91.30;;;;;;5044324;28;20080;-59
2021/09/20 01:53:20;;;;;;;7.80;3.03;;;15.00;91.60;;;;;;5043544;28;20057;-60
2021/09/20 01:55:47;;;;;;;4.82;3.15;;;15.00;91.60;;;;;;5044613;28;20049;-59
2021/09/20 01:58:13;;;;;;;4.63;2.60;;;15.00;91.40;;;;;;5042979;28;20128;-60
2021/09/20 02:00:43;;;;;;;5.30;2.80;;;15.00;91.40;;;;;;5044505;28;20085;-60
2021/09/20 02:03:11;;;;;;;5.45;2.40;;;15.00;91.50;;;;;;5042580;28;20041;-60
2021/09/20 02:05:38;;;;;;;3.45;2.30;;;15.00;91.00;;;;;;5044591;28;20132;-62
2021/09/20 02:08:05;;;;;;;5.57;2.15;;;15.00;91.20;;;;;;5043592;28;20084;-60
2021/09/20 02:10:32;;;;;;;5.45;3.10;;;15.00;90.90;;;;;;5043116;28;20084;-59
2021/09/20 02:12:59;;;;;;;3.22;2.00;;;15.00;91.10;;;;;;5040145;28;20076;-60
2021/09/20 02:15:26;;;;;;;6.82;2.42;;;14.90;91.10;;;;;;5050817;28;20487;-60
2021/09/20 02:17:52;;;;;;;2.90;2.17;;;14.90;90.80;;;;;;5042839;28;20098;-60
2021/09/20 02:20:19;;;;;;;6.05;3.00;;;14.90;91.00;;;;;;5044173;28;20045;-59
2021/09/20 02:22:46;;;;;;;3.33;1.80;;;14.90;91.10;;;;;;5043835;28;20089;-60
2021/09/20 02:25:13;;;;;;;3.40;1.90;;;14.90;90.70;;;;;;5042904;28;20132;-60
2021/09/20 02:27:40;;;;;;;4.05;2.13;;;14.90;90.60;;;;;;5043950;28;20045;-59
2021/09/20 02:30:07;;;;;;;3.85;2.10;;;14.90;90.90;;;;;;5026122;28;20085;-59
2021/09/20 02:32:34;;;;;;;2.67;1.77;;;14.80;90.90;;;;;;5034541;28;20052;-60
2021/09/20 02:35:01;;;;;;;4.00;2.28;;;14.90;90.70;;;;;;5026639;28;20053;-59
2021/09/20 02:37:27;;;;;;;4.55;2.13;;;14.80;90.70;;;;;;5057859;28;20519;-59
2021/09/20 02:39:54;;;;;;;7.20;1.92;;;14.80;90.80;;;;;;5054677;28;20091;-60
2021/09/20 02:42:21;;;;;;;4.90;2.10;;;14.90;90.60;;;;;;5043272;28;20132;-59
2021/09/20 02:44:48;;;;;;;3.75;1.92;;;14.90;91.20;;;;;;5043151;28;20045;-60
2021/09/20 02:47:14;;;;;;;6.63;2.20;;;14.80;90.70;;;;;;5043290;28;20093;-59
2021/09/20 02:49:41;;;;;;;4.35;2.20;;;14.80;90.80;;;;;;5043224;28;20081;-59
2021/09/20 02:52:08;;;;;;;4.70;1.80;;;14.80;90.50;;;;;;5043469;28;20052;-60
2021/09/20 02:54:35;;;;;;;3.67;2.25;;;14.80;90.40;;;;;;5043524;28;20131;-59
2021/09/20 02:57:01;;;;;;;5.78;2.78;;;14.80;90.20;;;;;;5043411;28;20136;-59
2021/09/20 02:59:28;;;;;;;6.28;1.90;;;14.80;90.30;;;;;;5042982;28;20100;-59
2021/09/20 03:01:55;;;;;;;4.13;2.08;;;14.80;90.20;;;;;;5042877;28;20092;-59
2021/09/20 03:04:22;;;;;;;8.80;2.30;;;14.80;90.30;;;;;;5043385;28;20099;-59
2021/09/20 03:06:48;;;;;;;5.05;2.08;;;14.90;90.20;;;;;;5042916;28;20107;-59
2021/09/20 03:09:15;;;;;;;5.30;1.90;;;14.90;90.50;;;;;;5042801;28;20049;-60
2021/09/20 03:11:42;;;;;;;4.10;1.92;;;14.90;90.10;;;;;;5027093;28;20508;-59
2021/09/20 03:14:09;;;;;;;5.32;2.15;;;14.80;90.20;;;;;;5046627;28;20524;-59
2021/09/20 03:16:36;;;;;;;4.82;1.80;;;14.80;90.10;;;;;;5046624;28;20080;-60
2021/09/20 03:19:02;;;;;;;5.53;1.90;;;14.80;90.00;;;;;;5047391;28;20088;-59
2021/09/20 03:21:29;;;;;;;3.83;2.00;;;14.80;89.90;;;;;;5047031;28;20136;-61
2021/09/20 03:23:56;;;;;;;2.25;1.10;;;14.80;90.00;;;;;;5045829;28;20068;-60
2021/09/20 03:26:23;;;;;;;4.00;1.65;;;14.80;89.50;;;;;;5047083;28;20496;-60
2021/09/20 03:28:49;;;;;;;2.97;1.40;;;14.90;89.60;;;;;;5046176;28;20123;-59
2021/09/20 03:31:18;;;;;;;4.95;1.98;;;14.90;89.50;;;;;;5047097;28;20053;-59
2021/09/20 03:33:45;;;;;;;4.75;1.77;;;14.90;89.30;;;;;;5045856;28;20049;-59
2021/09/20 03:36:11;;;;;;;4.20;1.85;;;14.90;89.60;;;;;;5047228;28;20512;-59
2021/09/20 03:38:38;;;;;;;2.95;1.48;;;14.90;90.00;;;;;;5046002;28;20128;-60
2021/09/20 03:41:05;;;;;;;5.80;2.00;;;14.90;88.80;;;;;;5046994;28;20076;-59
2021/09/20 03:43:31;;;;;;;18.50;2.05;;;14.80;89.00;;;;;;5045877;28;20154;-60
2021/09/20 03:45:58;;;;;;;3.97;1.88;;;14.80;89.30;;;;;;5047371;28;20129;-59
2021/09/20 03:48:25;;;;;;;3.22;1.75;;;14.80;89.00;;;;;;5045700;28;20049;-59
2021/09/20 03:50:52;;;;;;;5.82;2.10;;;14.80;88.60;;;;;;5047066;28;20136;-60
2021/09/20 03:53:18;;;;;;;3.38;2.08;;;14.70;88.50;;;;;;5046313;28;20088;-59
2021/09/20 03:55:45;;;;;;;5.13;1.75;;;14.60;89.20;;;;;;5046977;28;20077;-60
2021/09/20 03:58:12;;;;;;;5.38;1.75;;;14.60;89.10;;;;;;5030847;28;20088;-60
2021/09/20 04:00:39;;;;;;;7.20;2.20;;;14.50;89.30;;;;;;5046407;28;20132;-59
2021/09/20 04:03:05;;;;;;;7.10;2.13;;;14.40;89.50;;;;;;5045564;28;20049;-59
2021/09/20 04:05:33;;;;;;;2.60;1.58;;;14.40;90.00;;;;;;5046956;28;20470;-60
2021/09/20 04:07:59;;;;;;;3.15;2.08;;;14.30;90.00;;;;;;5045869;28;20122;-59
2021/09/20 04:10:26;;;;;;;5.40;1.88;;;14.30;90.30;;;;;;5045082;28;20076;-59
2021/09/20 04:12:53;;;;;;;5.78;2.17;;;14.20;90.10;;;;;;5046004;28;20051;-59
2021/09/20 04:15:20;;;;;;;4.78;2.05;;;14.20;90.20;;;;;;5045839;28;20465;-59
2021/09/20 04:17:46;;;;;;;3.45;1.80;;;14.10;90.30;;;;;;5044809;28;20579;-59
2021/09/20 04:20:13;;;;;;;10.02;2.38;;;14.10;90.40;;;;;;5046354;28;20079;-60
2021/09/20 04:22:40;;;;;;;5.45;2.20;;;14.10;90.40;;;;;;5048665;28;20071;-59
2021/09/20 04:25:09;;;;;;;5.22;2.00;;;14.10;90.50;;;;;;5065847;28;20136;-59
2021/09/20 04:27:36;;;;;;;4.70;1.83;;;14.00;90.70;;;;;;5056137;28;20124;-59
2021/09/20 04:30:04;;;;;;;4.20;1.73;;;14.00;90.90;;;;;;5045886;28;20144;-59
2021/09/20 04:32:31;;;;;;;4.82;1.98;;;13.90;90.80;;;;;;5044763;28;20143;-60
2021/09/20 04:34:58;;;;;;;7.18;2.00;;;13.90;90.90;;;;;;5045538;28;20102;-60
2021/09/20 04:37:25;;;;;;;8.05;2.28;;;13.90;90.90;;;;;;5046298;28;20159;-59
2021/09/20 04:39:51;;;;;;;6.40;2.45;;;13.90;91.00;;;;;;5027118;28;20551;-60
2021/09/20 04:42:18;;;;;;;4.88;2.00;;;13.80;91.10;;;;;;5045292;28;20130;-59
2021/09/20 04:44:45;;;;;;;8.95;2.55;;;13.80;91.00;;;;;;5045270;28;20522;-60
2021/09/20 04:47:12;;;;;;;6.97;2.28;;;13.70;91.10;;;;;;5027310;28;20148;-60
2021/09/20 04:49:39;;;;;;;5.05;1.95;;;13.70;91.20;;;;;;5045552;28;20140;-59
2021/09/20 04:52:06;;;;;;;6.45;2.35;;;13.70;91.40;;;;;;5045583;28;20077;-59
2021/09/20 04:54:32;;;;;;;8.52;1.88;;;13.60;91.30;;;;;;5044599;28;20081;-59
2021/09/20 04:56:59;;;;;;;4.50;2.08;;;13.60;91.30;;;;;;5044788;28;20076;-59
2021/09/20 04:59:26;;;;;;;6.70;2.20;;;13.60;91.60;;;;;;5044226;28;20079;-59
2021/09/20 05:01:53;;;;;;;4.80;2.20;;;13.60;91.30;;;;;;5044360;28;20136;-60
2021/09/20 05:04:20;;;;;;;5.85;2.10;;;13.60;91.30;;;;;;5042028;28;20045;-60
2021/09/20 05:06:46;;;;;;;11.48;2.15;;;13.60;91.30;;;;;;5043226;28;20144;-59
2021/09/20 05:09:13;;;;;;;3.92;1.98;;;13.50;91.80;;;;;;5042431;28;20488;-60
2021/09/20 05:11:40;;;;;;;7.32;2.50;;;13.50;91.50;;;;;;5042193;28;20138;-59
2021/09/20 05:14:06;;;;;;;5.57;2.65;;;13.50;91.40;;;;;;5042878;28;20049;-59
2021/09/20 05:16:33;;;;;;;6.03;2.08;;;13.50;91.80;;;;;;5042626;28;20076;-60
2021/09/20 05:19:00;;;;;;;6.57;1.98;;;13.50;91.70;;;;;;5041431;28;20083;-59
2021/09/20 05:21:27;;;;;;;8.60;3.20;;;13.50;91.60;;;;;;5042984;28;20080;-61
2021/09/20 05:23:54;;;;;;;6.30;2.45;;;13.50;91.60;;;;;;5042096;28;20127;-60
2021/09/20 05:26:20;;;;;;;5.07;2.38;;;13.40;91.80;;;;;;5041565;28;20970;-60
2021/09/20 05:28:47;;;;;;;9.35;3.10;;;13.40;91.90;;;;;;5041790;28;20080;-60
2021/09/20 05:31:14;;;;;;;7.53;3.10;;;13.40;92.20;;;;;;5041051;28;20113;-60
2021/09/20 05:33:41;;;;;;;8.85;3.35;;;13.30;92.10;;;;;;5036630;28;20134;-59
2021/09/20 05:36:08;;;;;;;8.70;2.95;;;13.30;92.50;;;;;;5039126;28;20072;-60
2021/09/20 05:38:34;;;;;;;7.60;2.90;;;13.30;92.20;;;;;;5041764;28;20076;-59
2021/09/20 05:41:02;;;;;;;6.80;2.50;;;13.30;92.20;;;;;;5043479;28;20563;-59
2021/09/20 05:43:29;;;;;;;5.38;2.40;;;13.30;92.30;;;;;;5037298;28;20053;-59
2021/09/20 05:45:55;;;;;;;6.60;2.88;;;13.30;92.50;;;;;;5040991;28;20079;-60
2021/09/20 05:48:22;;;;;;;8.65;2.92;;;13.30;92.60;;;;;;5036846;28;20059;-60
2021/09/20 05:50:49;;;;;;;7.28;4.35;;;13.30;92.50;;;;;;5037970;28;20164;-59
2021/09/20 05:53:16;;;;;;;7.13;3.55;;;13.30;92.40;;;;;;5038744;28;20609;-60
2021/09/20 05:55:43;;;;;;;9.05;3.22;;;13.40;92.60;;;;;;5036472;28;20060;-60
2021/09/20 05:58:09;;;;;;;7.72;3.42;;;13.40;92.40;;;;;;5038388;28;20084;-61
2021/09/20 06:00:36;;;;;;;7.55;3.10;;;13.50;92.30;;;;;;5027158;28;20602;-60
2021/09/20 06:03:03;;;;;;;6.32;3.75;;;13.50;92.40;;;;;;5037742;28;20048;-60
2021/09/20 06:05:30;;;;;;;9.88;4.82;;;13.60;92.20;;;;;;5038481;28;20132;-61
2021/09/20 06:07:57;;;;;;;10.07;4.95;;;13.60;92.30;;;;;;5037141;28;20135;-60
2021/09/20 06:10:24;;;;;;;10.82;5.32;;;13.70;92.30;;;;;;5040904;28;20132;-60
2021/09/20 06:12:51;;;;;;;12.57;6.18;;;13.70;92.20;;;;;;5038259;28;20136;-60
2021/09/20 06:15:17;;;;;;;10.15;5.40;;;13.80;92.30;;;;;;5037676;28;20164;-61
2021/09/20 06:17:44;;;;;;;10.98;5.75;;;13.80;92.10;;;;;;5038211;28;20653;-61
2021/09/20 06:20:11;;;;;;;12.20;6.13;;;13.90;92.00;;;;;;5020989;28;20053;-60
2021/09/20 06:22:38;;;;;;;7.88;5.45;;;13.90;92.20;;;;;;5004176;28;20172;-60
2021/09/20 06:25:06;;;;;;;11.95;5.60;;;14.00;92.00;;;;;;5037882;28;20053;-60
2021/09/20 06:27:32;;;;;;;8.98;6.18;;;14.00;91.90;;;;;;5037667;28;20135;-60
2021/09/20 06:29:59;;;;;;;11.60;5.88;;;14.00;92.00;;;;;;5038252;28;20076;-60
2021/09/20 06:32:26;;;;;;;12.18;6.05;;;14.10;91.90;;;;;;5021046;28;20092;-60
2021/09/20 06:34:53;;;;;;;9.23;5.55;;;14.10;91.90;;;;;;5040001;28;20052;-61
2021/09/20 06:37:19;;;;;;;11.40;7.18;;;14.20;91.90;;;;;;5054064;28;20151;-60
2021/09/20 06:39:46;;;;;;;9.98;5.78;;;14.20;91.80;;;;;;5035811;28;20133;-60
2021/09/20 06:42:13;;;;;;;7.65;5.78;;;14.30;91.80;;;;;;5036464;28;20147;-60
2021/09/20 06:44:40;;;;;;;12.30;6.88;;;14.20;91.60;;;;;;5019630;28;20041;-59
2021/09/20 06:47:07;;;;;;;12.48;6.35;;;14.20;91.60;;;;;;5040828;28;20722;-59
2021/09/20 06:49:34;;;;;;;9.73;6.15;;;14.20;91.60;;;;;;5023249;28;20681;-60
2021/09/20 06:52:01;;;;;;;11.50;7.10;;;14.30;91.80;;;;;;5041619;28;20094;-60
2021/09/20 06:54:27;;;;;;;12.43;6.80;;;14.20;91.90;;;;;;5023433;28;20603;-60
2021/09/20 06:56:54;;;;;;;9.30;5.82;;;14.30;91.80;;;;;;5041980;28;20495;-60
2021/09/20 06:59:21;;;;;;;10.02;6.68;;;14.30;91.90;;;;;;5042246;28;20171;-60
2021/09/20 07:01:48;;;;;;;10.13;5.93;;;14.30;92.00;;;;;;5040727;28;20183;-60
2021/09/20 07:04:15;;;;;;;11.00;6.45;;;14.40;91.80;;;;;;5041205;28;20056;-59
2021/09/20 07:06:43;;;;;;;10.98;5.85;;;14.40;91.70;;;;;;5041736;28;20063;-59
2021/09/20 07:09:11;;;;;;;10.57;6.32;;;14.50;91.50;;;;;;5040542;28;20658;-60
2021/09/20 07:11:37;;;;;;;9.90;7.03;;;14.50;91.30;;;;;;5036364;28;20674;-59
2021/09/20 07:14:04;;;;;;;9.57;5.80;;;14.60;91.30;;;;;;5041643;28;20103;-60
2021/09/20 07:16:31;;;;;;;12.80;7.32;;;14.60;91.40;;;;;;5027501;28;20083;-60
2021/09/20 07:18:58;;;;;;;10.43;5.93;;;14.50;91.30;;;;;;5054678;28;20128;-60
2021/09/20 07:21:25;;;;;;;14.63;6.30;;;14.50;91.20;;;;;;5039817;28;20138;-60
2021/09/20 07:23:54;;;;;;;10.73;6.18;;;14.60;91.60;;;;;;5030602;28;20946;-60
2021/09/20 07:26:22;;;;;;;12.00;5.93;;;14.60;91.30;;;;;;5041258;28;20140;-60
2021/09/20 07:28:49;;;;;;;10.27;6.15;;;14.60;91.20;;;;;;5040627;28;20087;-60
2021/09/20 07:31:16;;;;;;;10.18;5.82;;;14.60;91.10;;;;;;5041261;28;20140;-60
2021/09/20 07:33:43;;;;;;;11.40;5.68;;;14.60;91.00;;;;;;5040681;28;20163;-60
2021/09/20 07:36:09;;;;;;;9.55;6.00;;;14.60;91.00;;;;;;5041997;28;20140;-60
2021/09/20 07:38:37;;;;;;;16.38;6.13;;;14.70;91.10;;;;;;5022683;28;20049;-60
2021/09/20 07:41:04;;;;;;;8.10;6.00;;;14.80;91.00;;;;;;5023380;28;20102;-59
2021/09/20 07:43:31;;;;;;;11.60;6.50;;;14.80;90.80;;;;;;5039978;28;20080;-60
2021/09/20 07:45:58;;;;;;;12.57;6.50;;;14.80;91.00;;;;;;5041576;28;20102;-60
2021/09/20 07:48:25;;;;;;;11.88;6.47;;;14.80;90.70;;;;;;5022289;28;20049;-60
2021/09/20 07:50:52;;;;;;;13.27;6.38;;;14.80;90.70;;;;;;5039999;28;20136;-60
2021/09/20 07:53:19;;;;;;;14.73;7.15;;;14.80;91.00;;;;;;5042946;28;20748;-60
2021/09/20 07:55:47;;;;;;;10.07;6.65;;;14.70;90.90;;;;;;5041750;28;20155;-60
2021/09/20 07:58:14;;;;;;;9.13;5.53;;;14.70;90.70;;;;;;5039118;28;20512;-60
2021/09/20 08:00:41;;;;;;;14.82;7.30;;;14.70;90.80;;;;;;5040533;28;20080;-59
2021/09/20 08:03:11;;;;;;;12.00;6.65;;;14.70;90.90;;;;;;5006284;28;20135;-60
2021/09/20 08:05:40;;;;;;;13.07;6.75;;;14.80;90.70;;;;;;5033014;28;20056;-60
2021/09/20 08:08:07;;;;;;;12.43;6.35;;;14.80;90.90;;;;;;5022457;28;20077;-61
2021/09/20 08:10:34;;;;;;;13.48;6.28;;;14.80;91.00;;;;;;5036158;28;20049;-61
2021/09/20 08:13:04;;;;;;;11.93;7.55;;;14.80;90.90;;;;;;5040213;28;20056;-60
2021/09/20 08:15:31;;;;;;;11.82;6.82;;;14.90;90.90;;;;;;5040327;28;20045;-60
2021/09/20 08:17:58;;;;;;;12.75;6.30;;;14.90;90.60;;;;;;5037679;28;20123;-60
2021/09/20 08:20:25;;;;;;;14.15;6.72;;;14.90;91.00;;;;;;5038799;28;20120;-59
2021/09/20 08:22:52;;;;;;;11.80;6.53;;;14.90;90.90;;;;;;5040012;28;20134;-60
2021/09/20 08:25:20;;;;;;;9.48;7.22;;;14.90;90.50;;;;;;5036836;28;20081;-59
2021/09/20 08:27:47;;;;;;;12.88;5.55;;;14.90;90.50;;;;;;5021026;28;20081;-60
2021/09/20 08:30:14;;;;;;;14.35;6.57;;;14.90;91.00;;;;;;5035736;28;20142;-60
2021/09/20 08:32:41;;;;;;;8.50;5.93;;;14.90;90.90;;;;;;5039277;28;20128;-60
2021/09/20 08:35:08;;;;;;;9.73;6.35;;;14.90;90.80;;;;;;5036263;28;20056;-60
2021/09/20 08:37:35;;;;;;;12.70;5.90;;;15.00;90.90;;;;;;5021359;28;20128;-60
2021/09/20 08:40:04;;;;;;;10.65;6.20;;;15.00;90.80;;;;;;5039207;28;20085;-60
2021/09/20 08:42:30;;;;;;;10.18;6.00;;;15.00;90.60;;;;;;5040170;28;20651;-60
2021/09/20 08:44:58;;;;;;;10.40;6.38;;;15.00;90.60;;;;;;5039480;28;20072;-59
2021/09/20 08:47:24;;;;;;;12.02;6.47;;;15.00;90.80;;;;;;5039589;28;20235;-60
2021/09/20 08:49:52;;;;;;;13.90;6.68;;;15.00;90.70;;;;;;5033420;28;20073;-60
2021/09/20 08:52:23;;;;;;;12.50;6.75;;;15.10;90.70;;;;;;5018503;28;20530;-60
2021/09/20 08:54:53;;;;;;;10.48;6.88;;;15.10;90.80;;;;;;5038940;28;20049;-60
2021/09/20 08:57:20;;;;;;;13.38;8.50;;;15.10;91.00;;;;;;5039829;28;20126;-60
2021/09/20 08:59:47;;;;;;;14.43;7.72;;;15.10;90.80;;;;;;5017287;28;20084;-60
2021/09/20 09:02:15;;;;;;;12.65;7.38;;;15.10;91.00;;;;;;5034452;28;20128;-60
2021/09/20 09:04:43;;;;;;;9.45;7.38;;;15.10;90.90;;;;;;5038431;28;20053;-60
2021/09/20 09:07:12;;;;;;;9.68;8.13;;;15.20;90.80;;;;;;5039846;28;20366;-60
2021/09/20 09:09:46;;;;;;;13.75;7.22;;;15.20;90.80;;;;;;5038920;28;20542;-60
2021/09/20 09:12:27;;;;;;;17.50;8.15;;;15.30;90.80;;;;;;5023446;28;20088;-60
2021/09/20 09:14:56;;;;;;;16.15;7.72;;;15.30;90.40;;;;;;5039564;28;20702;-60
2021/09/20 09:17:24;;;;;;;12.38;7.32;;;15.30;90.20;;;;;;5020147;28;20132;-60
2021/09/20 09:19:58;;;;;;;16.98;8.68;;;15.30;90.40;;;;;;5039302;28;20081;-60
2021/09/20 09:22:49;;;;;;;16.25;9.75;;;15.20;90.40;;;;;;5038424;28;20269;-60
2021/09/20 09:25:17;;;;;;;12.77;9.20;;;15.30;90.70;;;;;;5038494;28;20579;-60
2021/09/20 09:27:45;;;;;;;16.38;9.57;;;15.30;90.50;;;;;;5036827;28;20697;-60
2021/09/20 09:30:23;;;;;;;15.95;9.27;;;15.20;90.80;;;;;;5036180;28;20065;-60
2021/09/20 09:33:04;;;;;;;13.10;8.90;;;15.20;90.70;;;;;;5037960;28;20052;-61
2021/09/20 09:35:31;;;;;;;12.27;8.50;;;15.20;91.00;;;;;;5051776;28;20052;-60
2021/09/20 09:38:04;;;;;;;14.05;9.45;;;15.30;90.90;;;;;;5039809;28;20044;-60
2021/09/20 09:40:42;;;;;;;13.50;9.85;;;15.20;90.80;;;;;;5004085;28;20059;-60
2021/09/20 09:43:09;;;;;;;17.85;10.52;;;15.20;91.00;;;;;;5020496;28;20064;-59
2021/09/20 09:45:36;;;;;;;16.88;10.00;;;15.30;90.90;;;;;;5035097;28;20427;-60
2021/09/20 09:48:12;;;;;;;16.63;11.30;;;15.30;91.00;;;;;;5016328;28;20085;-60
2021/09/20 09:50:47;;;;;;;15.93;11.40;;;15.40;91.00;;;;;;5027564;28;20486;-60
2021/09/20 09:53:41;;;;;;;13.68;9.82;;;15.40;90.70;;;;;;5020394;28;20570;-60
2021/09/20 09:56:15;;;;;;;15.90;10.32;;;15.50;90.60;;;;;;5019484;28;21045;-60
2021/09/20 09:59:01;;;;;;;11.48;9.43;;;15.60;90.70;;;;;;5011699;28;20658;-60
2021/09/20 10:01:30;;;;;;;16.27;9.95;;;15.70;90.20;;;;;;5037287;28;20072;-60
2021/09/20 10:04:09;;;;;;;15.40;10.82;;;15.80;90.20;;;;;;5045370;28;20055;-60
2021/09/20 10:06:42;;;;;;;14.05;10.32;;;15.90;90.40;;;;;;5040815;28;20051;-60
2021/09/20 10:09:14;;;;;;;15.48;9.43;;;15.90;90.10;;;;;;5041696;28;20653;-60
2021/09/20 10:11:43;;;;;;;15.33;10.97;;;15.90;90.20;;;;;;5039549;28;20057;-60
2021/09/20 10:14:10;;;;;;;13.82;10.88;;;15.90;90.10;;;;;;5022807;28;20167;-60
2021/09/20 10:16:37;;;;;;;16.90;11.98;;;15.80;90.10;;;;;;5041279;28;20147;-61
2021/09/20 10:19:04;;;;;;;12.95;9.68;;;15.80;90.20;;;;;;5023748;28;20058;-60
2021/09/20 10:21:31;;;;;;;16.08;10.63;;;15.80;90.40;;;;;;5044059;28;20123;-60
2021/09/20 10:23:58;;;;;;;15.07;10.82;;;15.90;90.30;;;;;;5061578;28;20114;-60
2021/09/20 10:26:25;;;;;;;17.42;11.27;;;16.00;90.20;;;;;;5061692;28;20092;-60
2021/09/20 10:28:54;;;;;;;13.40;10.07;;;16.00;89.90;;;;;;5060691;28;20133;-60
2021/09/20 10:31:20;;;;;;;15.25;10.60;;;16.00;90.20;;;;;;5043634;28;20052;-61
2021/09/20 10:33:47;;;;;;;13.15;10.43;;;16.00;90.20;;;;;;5060408;28;20080;-60
2021/09/20 10:36:14;;;;;;;12.98;9.70;;;16.00;90.30;;;;;;5062447;28;20051;-60
2021/09/20 10:38:51;;;;;;;12.18;9.75;;;16.00;90.20;;;;;;5027028;28;20084;-60
2021/09/20 10:41:22;;;;;;;11.48;9.30;;;16.10;90.40;;;;;;5061457;28;20087;-60
2021/09/20 10:44:06;;;;;;;15.38;10.55;;;16.30;90.00;;;;;;5061026;28;20669;-60
2021/09/20 10:46:42;;;;;;;12.18;9.70;;;16.30;89.10;;;;;;5061548;28;20507;-60
2021/09/20 10:49:22;;;;;;;11.32;9.80;;;16.40;89.20;;;;;;5062259;28;20049;-60
2021/09/20 10:52:03;;;;;;;11.32;9.52;;;16.60;89.10;;;;;;5061738;28;20117;-60
2021/09/20 10:54:30;;;;;;;12.48;8.68;;;16.80;87.80;;;;;;5042860;28;20072;-60
2021/09/20 10:57:13;;;;;;;13.10;10.20;;;16.90;87.90;;;;;;5043692;28;20165;-61
2021/09/20 10:59:40;;;;;;;10.88;9.07;;;17.10;85.70;;;;;;5061676;28;20106;-60
2021/09/20 11:02:17;;;;;;;11.43;9.52;;;17.20;86.40;;;;;;5061328;28;20131;-60
2021/09/20 11:04:45;;;;;;;13.25;8.35;;;17.40;85.60;;;;;;5061860;28;20083;-61
2021/09/20 11:07:15;;;;;;;13.45;9.40;;;17.70;85.70;;;;;;5061857;28;20172;-60
2021/09/20 11:09:45;;;;;;;14.57;10.15;;;17.90;85.50;;;;;;5061125;28;20487;-60
2021/09/20 11:12:14;;;;;;;11.45;9.32;;;18.10;81.70;;;;;;5061323;28;20448;-60
2021/09/20 11:14:49;;;;;;;10.07;7.80;;;18.30;83.60;;;;;;5043502;28;20553;-60
2021/09/20 11:17:20;;;;;;;10.45;9.43;;;18.40;82.80;;;;;;5060811;28;20592;-61
2021/09/20 11:19:47;;;;;;;10.85;8.15;;;18.30;81.50;;;;;;5044714;28;20080;-60
2021/09/20 11:22:14;;;;;;;13.65;10.05;;;18.40;82.20;;;;;;5061550;28;20098;-60
2021/09/20 11:24:46;;;;;;;15.98;9.50;;;18.30;83.00;;;;;;5060557;28;20153;-60
2021/09/20 11:27:22;;;;;;;9.90;8.77;;;18.30;82.00;;;;;;5043132;28;20127;-60
2021/09/20 11:30:11;;;;;;;12.63;8.50;;;18.40;82.20;;;;;;5061912;28;20538;-60
2021/09/20 11:32:52;;;;;;;11.25;9.18;;;18.50;80.90;;;;;;5053182;28;20547;-60
2021/09/20 11:35:19;;;;;;;11.85;8.80;;;18.60;81.40;;;;;;5064907;28;20052;-61
2021/09/20 11:37:46;;;;;;;10.57;8.75;;;18.80;80.80;;;;;;5065097;28;20068;-60
2021/09/20 11:40:17;;;;;;;14.93;8.50;;;18.90;81.90;;;;;;5064554;28;20114;-60
2021/09/20 11:42:48;;;;;;;10.95;8.90;;;19.10;80.90;;;;;;5064511;28;20566;-59
2021/09/20 11:45:23;;;;;;;10.25;7.90;;;19.30;81.30;;;;;;5046333;28;20542;-60
2021/09/20 11:47:56;;;;;;;9.43;8.05;;;19.30;79.60;;;;;;5063715;28;20083;-59
2021/09/20 11:50:23;;;;;;;10.45;9.38;;;19.30;79.80;;;;;;5064848;28;20079;-60
2021/09/20 11:52:55;;;;;;;11.23;8.40;;;19.20;78.50;;;;;;5046571;28;20056;-59
2021/09/20 11:55:26;;;;;;;11.02;8.57;;;19.10;79.20;;;;;;5064133;28;20091;-60
2021/09/20 11:57:55;;;;;;;7.97;7.18;;;19.10;79.80;;;;;;5064105;28;20083;-60
2021/09/20 12:00:24;;;;;;;9.15;8.18;;;19.20;80.60;;;;;;5064372;28;20076;-59
2021/09/20 12:02:54;;;;;;;8.93;7.95;;;19.30;79.50;;;;;;5063769;28;20610;-60
2021/09/20 12:05:23;;;;;;;9.07;8.18;;;19.30;79.80;;;;;;5064393;28;20052;-60
2021/09/20 12:07:56;;;;;;;9.38;7.80;;;19.40;78.60;;;;;;5064644;28;20080;-61
2021/09/20 12:10:35;;;;;;;12.00;9.30;;;19.30;78.60;;;;;;5063827;28;20095;-60
2021/09/20 12:13:10;;;;;;;12.63;9.30;;;19.20;79.50;;;;;;5064080;28;20060;-60
2021/09/20 12:15:38;;;;;;;12.60;9.02;;;19.20;79.50;;;;;;5064333;28;20053;-59
2021/09/20 12:18:13;;;;;;;8.88;7.82;;;19.20;80.30;;;;;;5063921;28;20040;-60
2021/09/20 12:20:41;;;;;;;9.40;8.48;;;19.00;79.20;;;;;;5053859;28;20550;-60
2021/09/20 12:23:25;;;;;;;9.98;8.65;;;18.90;80.30;;;;;;5042430;28;20052;-60
2021/09/20 12:25:57;;;;;;;10.38;8.73;;;18.70;80.70;;;;;;5042219;28;20084;-59
2021/09/20 12:28:30;;;;;;;12.93;9.82;;;18.80;81.90;;;;;;5042950;28;20827;-60
2021/09/20 12:31:05;;;;;;;10.13;8.90;;;18.80;81.40;;;;;;5025937;28;20132;-60
2021/09/20 12:33:57;;;;;;;9.85;8.00;;;18.90;80.70;;;;;;5045818;28;20490;-60
2021/09/20 12:36:25;;;;;;;9.85;8.82;;;19.20;79.80;;;;;;5053651;28;20099;-59
2021/09/20 12:39:05;;;;;;;8.48;7.68;;;19.40;78.60;;;;;;5038859;28;20127;-61
2021/09/20 12:41:43;;;;;;;8.65;7.68;;;19.40;78.20;;;;;;5040203;28;20133;-60
2021/09/20 12:44:12;;;;;;;8.52;7.80;;;19.60;77.10;;;;;;5030064;28;20076;-61
2021/09/20 12:46:39;;;;;;;10.73;8.80;;;19.60;78.50;;;;;;5012365;28;20068;-60
2021/09/20 12:49:07;;;;;;;9.27;8.32;;;19.60;78.40;;;;;;5040038;28;20055;-60